Terminal Aerodrome Forecast
Issued by NWS Green Bay, WI

Home | Current Version | Previous Version | Graphics & Text | Print | Product List | Glossary On
Versions: 1 2 3 4 5 6 7 8 9 10 11 12 13 14 15 16 17 18 19 20 21 22 23 24
000
FTUS43 KGRB 041720
TAFGRB
TAF
KGRB 041720Z 0418/0518 VRB03KT P6SM SCT045 SCT250
     FM050100 16003KT P6SM FEW045
     FM050400 VRB02KT P6SM SKC
      TEMPO 0509/0513 4SM BR
     FM051400 20008KT P6SM SCT040=

USA.gov is the U.S. government's official web portal to all federal, state and local government web resources and services.